createdAt,value
2019-04-28T00:00:53.048Z,7.60
2019-04-28T00:03:23.197Z,7.60
2019-04-28T00:05:52.538Z,7.50
2019-04-28T00:08:21.948Z,7.50
2019-04-28T00:10:53.080Z,7.40
2019-04-28T00:13:22.360Z,7.40
2019-04-28T00:15:51.938Z,7.40
2019-04-28T00:18:21.983Z,7.40
2019-04-28T00:21:10.883Z,7.30
2019-04-28T00:24:01.653Z,7.30
2019-04-28T00:26:32.774Z,7.30
2019-04-28T00:29:02.111Z,7.30
2019-04-28T00:31:31.461Z,7.30
2019-04-28T00:34:01.274Z,7.30
2019-04-28T00:36:31.328Z,7.30
2019-04-28T00:39:01.504Z,7.30
2019-04-28T00:41:31.122Z,7.20
2019-04-28T00:44:01.884Z,7.30
2019-04-28T00:46:35.994Z,7.20
2019-04-28T00:49:05.404Z,7.20
2019-04-28T00:51:34.749Z,7.20
2019-04-28T00:54:04.224Z,7.30
2019-04-28T00:56:33.564Z,7.40
2019-04-28T00:59:02.900Z,7.40
2019-04-28T01:01:42.877Z,7.40
2019-04-28T01:04:12.217Z,7.50
2019-04-28T01:06:43.028Z,7.50
2019-04-28T01:09:12.920Z,7.60
2019-04-28T01:11:42.239Z,7.60
2019-04-28T01:14:12.333Z,7.70
2019-04-28T01:16:49.810Z,7.70
2019-04-28T01:19:30.723Z,7.80
2019-04-28T01:22:10.624Z,7.80
2019-04-28T01:24:40.622Z,7.90
2019-04-28T01:27:30.386Z,7.90
2019-04-28T01:30:08.328Z,7.90
2019-04-28T01:32:37.178Z,7.90
2019-04-28T01:35:07.348Z,8.00
2019-04-28T01:37:36.686Z,8.00
2019-04-28T01:40:09.560Z,8.00
2019-04-28T01:42:41.103Z,8.00
2019-04-28T01:45:10.608Z,8.10
2019-04-28T01:47:40.453Z,8.10
2019-04-28T01:50:10.403Z,8.10
2019-04-28T01:52:40.094Z,8.10
2019-04-28T01:55:10.245Z,8.10
2019-04-28T01:57:40.106Z,8.00
2019-04-28T02:00:21.887Z,8.00
2019-04-28T02:02:43.483Z,7.90
2019-04-28T02:05:13.233Z,7.90
2019-04-28T02:07:42.573Z,7.90
2019-04-28T02:10:12.832Z,7.90
2019-04-28T02:12:42.163Z,7.90
2019-04-28T02:15:11.735Z,7.90
2019-04-28T02:17:41.075Z,7.90
2019-04-28T02:20:10.719Z,7.90
2019-04-28T02:22:41.704Z,7.90
2019-04-28T02:25:11.351Z,7.90
2019-04-28T02:27:40.772Z,7.90
2019-04-28T02:30:11.618Z,8.00
2019-04-28T02:32:41.563Z,8.00
2019-04-28T02:35:11.355Z,8.00
2019-04-28T02:37:40.983Z,8.00
2019-04-28T02:40:11.008Z,8.00
2019-04-28T02:42:41.109Z,8.00
2019-04-28T02:45:11.868Z,8.00
2019-04-28T02:47:42.295Z,7.90
2019-04-28T02:50:13.594Z,7.90
2019-04-28T02:52:53.574Z,8.00
2019-04-28T02:55:23.384Z,7.90
2019-04-28T02:57:52.719Z,7.90
2019-04-28T03:00:22.304Z,8.00
2019-04-28T03:02:51.705Z,7.90
2019-04-28T03:05:21.833Z,8.00
2019-04-28T03:07:51.915Z,7.90
2019-04-28T03:10:21.746Z,8.00
2019-04-28T03:12:52.137Z,8.00
2019-04-28T03:15:21.556Z,8.00
2019-04-28T03:17:53.231Z,8.00
2019-04-28T03:20:21.971Z,8.00
2019-04-28T03:22:51.752Z,8.00
2019-04-28T03:25:22.729Z,8.00
2019-04-28T03:27:53.719Z,8.10
2019-04-28T03:30:36.661Z,8.10
2019-04-28T03:33:13.105Z,8.10
2019-04-28T03:35:43.470Z,8.10
2019-04-28T03:38:10.755Z,8.10
2019-04-28T03:40:41.468Z,8.10
2019-04-28T03:43:14.442Z,8.10
2019-04-28T03:45:43.634Z,8.10
2019-04-28T03:48:12.979Z,8.10
2019-04-28T03:50:42.331Z,8.10
2019-04-28T03:53:11.661Z,8.10
2019-04-28T03:55:41.699Z,8.10
2019-04-28T03:58:11.169Z,8.10
2019-04-28T04:00:40.995Z,8.10
2019-04-28T04:03:11.040Z,8.10
2019-04-28T04:05:40.866Z,8.00
2019-04-28T04:08:11.050Z,8.00
2019-04-28T04:10:50.164Z,8.00
2019-04-28T04:13:35.615Z,8.00
2019-04-28T04:16:15.600Z,8.00
2019-04-28T04:18:46.661Z,8.00
2019-04-28T04:21:15.999Z,8.00
2019-04-28T04:23:45.340Z,7.90
2019-04-28T04:26:14.675Z,7.90
2019-04-28T04:28:44.021Z,7.90
2019-04-28T04:31:13.381Z,7.90
2019-04-28T04:33:42.708Z,7.90
2019-04-28T04:36:12.151Z,7.90
2019-04-28T04:38:46.001Z,7.90
2019-04-28T04:41:12.633Z,7.90
2019-04-28T04:43:42.007Z,7.90
2019-04-28T04:46:22.638Z,8.00
2019-04-28T04:48:52.290Z,8.00
2019-04-28T04:51:21.949Z,8.10
2019-04-28T04:53:51.791Z,8.10
2019-04-28T04:56:21.688Z,8.10
2019-04-28T04:58:51.232Z,8.10
2019-04-28T05:01:25.340Z,8.20
2019-04-28T05:04:11.436Z,8.20
2019-04-28T05:06:41.753Z,8.20
2019-04-28T05:09:11.494Z,8.30
2019-04-28T05:11:40.834Z,8.30
2019-04-28T05:14:12.046Z,8.20
2019-04-28T05:16:41.319Z,8.20
2019-04-28T05:19:10.656Z,8.30
2019-04-28T05:21:40.542Z,8.30
2019-04-28T05:24:15.947Z,8.30
2019-04-28T05:26:47.768Z,8.30
2019-04-28T05:29:14.682Z,8.30
2019-04-28T05:31:44.024Z,8.40
2019-04-28T05:34:13.428Z,8.40
2019-04-28T05:36:44.696Z,8.40
2019-04-28T05:39:14.169Z,8.50
2019-04-28T05:41:43.500Z,8.40
2019-04-28T05:44:12.836Z,8.40
2019-04-28T05:46:42.168Z,8.40
2019-04-28T05:49:13.166Z,8.40
2019-04-28T05:51:46.877Z,8.40
2019-04-28T05:54:20.572Z,8.50
2019-04-28T05:57:02.362Z,8.60
2019-04-28T05:59:50.537Z,8.60
2019-04-28T06:02:30.724Z,8.70
2019-04-28T06:05:00.093Z,8.70
2019-04-28T06:07:37.301Z,8.80
2019-04-28T06:10:07.743Z,8.80
2019-04-28T06:12:37.087Z,8.90
2019-04-28T06:15:07.460Z,8.90
2019-04-28T06:17:36.814Z,8.90
2019-04-28T06:20:07.356Z,9.00
2019-04-28T06:22:36.696Z,9.00
2019-04-28T06:25:07.045Z,8.90
2019-04-28T06:27:36.387Z,9.00
2019-04-28T06:30:08.605Z,9.00
2019-04-28T06:32:37.958Z,9.00
2019-04-28T06:35:08.160Z,8.90
2019-04-28T06:37:37.519Z,8.90
2019-04-28T06:40:07.903Z,8.90
2019-04-28T06:42:37.252Z,8.80
2019-04-28T06:45:07.690Z,8.90
2019-04-28T06:47:37.031Z,8.90
2019-04-28T06:50:07.172Z,9.00
2019-04-28T06:52:37.352Z,9.00
2019-04-28T06:55:07.496Z,9.10
2019-04-28T06:57:36.833Z,9.10
2019-04-28T07:00:08.450Z,9.20
2019-04-28T07:02:37.803Z,9.30
2019-04-28T07:05:07.991Z,9.40
2019-04-28T07:07:37.324Z,9.50
2019-04-28T07:10:09.349Z,9.70
2019-04-28T07:12:38.685Z,9.80
2019-04-28T07:15:08.334Z,9.90
2019-04-28T07:17:37.682Z,10.10
2019-04-28T07:20:26.477Z,10.20
2019-04-28T07:22:55.820Z,10.20
2019-04-28T07:25:25.185Z,10.40
2019-04-28T07:27:54.524Z,10.50
2019-04-28T07:30:24.035Z,10.50
2019-04-28T07:32:53.380Z,10.60
2019-04-28T07:35:22.718Z,10.70
2019-04-28T07:37:52.063Z,10.70
2019-04-28T07:40:21.477Z,10.70
2019-04-28T07:42:50.848Z,10.70
2019-04-28T07:45:20.188Z,10.70
2019-04-28T07:47:49.535Z,10.70
2019-04-28T07:50:18.880Z,10.80
2019-04-28T07:52:49.859Z,10.90
2019-04-28T07:55:19.206Z,10.90
2019-04-28T07:57:48.543Z,11.00
2019-04-28T08:00:25.391Z,11.00
2019-04-28T08:02:54.733Z,11.10
2019-04-28T08:05:24.076Z,11.10
2019-04-28T08:07:53.490Z,11.10
2019-04-28T08:10:22.831Z,11.10
2019-04-28T08:12:52.177Z,11.20
2019-04-28T08:15:21.524Z,11.40
2019-04-28T08:17:50.874Z,11.50
2019-04-28T08:20:20.448Z,11.50
2019-04-28T08:22:49.798Z,11.60
2019-04-28T08:25:19.139Z,11.50
2019-04-28T08:27:48.480Z,11.50
2019-04-28T08:30:17.990Z,11.60
2019-04-28T08:32:59.506Z,11.50
2019-04-28T08:35:32.380Z,11.50
2019-04-28T08:38:01.686Z,11.50
2019-04-28T08:40:32.031Z,11.40
2019-04-28T08:43:01.371Z,11.50
2019-04-28T08:45:30.709Z,11.40
2019-04-28T08:48:00.048Z,11.40
2019-04-28T08:50:29.415Z,11.50
2019-04-28T08:52:58.777Z,11.60
2019-04-28T08:55:28.121Z,11.70
2019-04-28T08:57:57.460Z,11.80
2019-04-28T09:00:26.806Z,11.80
2019-04-28T09:02:56.157Z,11.80
2019-04-28T09:05:25.559Z,11.70
2019-04-28T09:07:54.907Z,11.60
2019-04-28T09:10:24.249Z,11.60
2019-04-28T09:12:53.601Z,11.60
2019-04-28T09:15:23.039Z,11.60
2019-04-28T09:17:52.392Z,11.60
2019-04-28T09:20:21.737Z,11.60
2019-04-28T09:22:51.081Z,11.70
2019-04-28T09:25:20.428Z,11.80
2019-04-28T09:27:49.769Z,12.00
2019-04-28T09:30:19.125Z,12.20
2019-04-28T09:32:48.462Z,12.30
2019-04-28T09:35:17.813Z,12.40
2019-04-28T09:37:47.163Z,12.50
2019-04-28T09:40:17.479Z,12.40
2019-04-28T09:42:57.438Z,12.60
2019-04-28T09:45:28.428Z,12.60
2019-04-28T09:47:57.771Z,12.70
2019-04-28T09:50:27.113Z,12.70
2019-04-28T09:52:56.457Z,12.80
2019-04-28T09:55:25.818Z,12.90
2019-04-28T09:57:55.137Z,12.90
2019-04-28T10:00:24.651Z,12.90
2019-04-28T10:02:53.990Z,12.90
2019-04-28T10:05:23.342Z,12.90
2019-04-28T10:07:52.678Z,12.80
2019-04-28T10:10:22.186Z,12.60
2019-04-28T10:12:51.525Z,12.70
2019-04-28T10:15:20.930Z,12.80
2019-04-28T10:17:50.279Z,12.90
2019-04-28T10:20:19.943Z,12.90
2019-04-28T10:22:49.272Z,13.00
2019-04-28T10:25:21.089Z,13.10
2019-04-28T10:27:49.686Z,13.10
2019-04-28T10:30:19.628Z,13.10
2019-04-28T10:32:48.981Z,13.30
2019-04-28T10:35:18.322Z,13.40
2019-04-28T10:37:47.663Z,13.50
2019-04-28T10:40:37.569Z,13.50
2019-04-28T10:43:06.966Z,13.60
2019-04-28T10:45:44.441Z,13.70
2019-04-28T10:48:14.127Z,13.70
2019-04-28T10:50:43.625Z,13.50
2019-04-28T10:53:13.466Z,13.50
2019-04-28T10:55:42.748Z,13.50
2019-04-28T10:58:12.317Z,13.50
2019-04-28T11:00:41.931Z,13.50
2019-04-28T11:03:11.274Z,13.40
2019-04-28T11:05:44.603Z,13.50
2019-04-28T11:08:28.121Z,13.60
2019-04-28T11:10:58.430Z,13.70
2019-04-28T11:13:29.380Z,13.80
2019-04-28T11:15:58.726Z,13.90
2019-04-28T11:18:28.427Z,14.00
2019-04-28T11:20:57.771Z,14.10
2019-04-28T11:23:27.109Z,14.20
2019-04-28T11:25:56.454Z,14.30
2019-04-28T11:28:25.801Z,14.40
2019-04-28T11:30:55.145Z,14.40
2019-04-28T11:33:29.066Z,14.40
2019-04-28T11:35:58.676Z,14.40
2019-04-28T11:38:28.095Z,14.40
2019-04-28T11:40:57.435Z,14.50
2019-04-28T11:43:26.790Z,14.50
2019-04-28T11:45:56.295Z,14.50
2019-04-28T11:48:25.636Z,14.40
2019-04-28T11:50:55.055Z,14.50
2019-04-28T11:53:24.670Z,14.80
2019-04-28T11:55:54.010Z,15.00
2019-04-28T11:58:23.354Z,15.20
2019-04-28T12:00:53.184Z,15.50
2019-04-28T12:03:22.583Z,15.70
2019-04-28T12:05:51.932Z,15.70
2019-04-28T12:08:21.278Z,15.70
2019-04-28T12:10:52.254Z,15.60
2019-04-28T12:13:32.509Z,15.60
2019-04-28T12:16:03.490Z,15.50
2019-04-28T12:18:40.350Z,15.50
2019-04-28T12:21:09.687Z,15.60
2019-04-28T12:23:39.047Z,15.70
2019-04-28T12:26:08.400Z,15.70
2019-04-28T12:28:37.745Z,16.00
2019-04-28T12:31:07.085Z,16.10
2019-04-28T12:33:36.427Z,16.00
2019-04-28T12:36:08.544Z,16.00
2019-04-28T12:38:37.903Z,16.00
2019-04-28T12:41:07.233Z,16.00
2019-04-28T12:43:36.573Z,16.30
2019-04-28T12:46:05.992Z,16.50
2019-04-28T12:48:35.342Z,16.70
2019-04-28T12:51:04.684Z,16.70
2019-04-28T12:53:34.026Z,16.80
2019-04-28T12:56:03.370Z,17.00
2019-04-28T12:58:32.705Z,16.90
2019-04-28T13:01:09.479Z,16.90
2019-04-28T13:03:40.473Z,16.80
2019-04-28T13:06:14.123Z,16.70
2019-04-28T13:08:43.470Z,16.60
2019-04-28T13:11:12.822Z,16.70
2019-04-28T13:13:42.170Z,16.60
2019-04-28T13:16:11.505Z,16.40
2019-04-28T13:18:40.862Z,16.20
2019-04-28T13:21:10.199Z,16.10
2019-04-28T13:23:39.563Z,16.20
2019-04-28T13:26:08.901Z,16.30
2019-04-28T13:28:38.268Z,16.30
2019-04-28T13:31:07.596Z,16.40
2019-04-28T13:33:36.942Z,16.40
2019-04-28T13:36:14.634Z,16.60
2019-04-28T13:38:37.349Z,16.70
2019-04-28T13:41:06.703Z,16.80
2019-04-28T13:43:36.044Z,16.80
2019-04-28T13:46:05.458Z,17.00
2019-04-28T13:48:34.801Z,17.10
2019-04-28T13:51:04.177Z,17.10
2019-04-28T13:53:33.491Z,17.10
2019-04-28T13:56:03.103Z,17.10
2019-04-28T13:58:33.975Z,17.10
2019-04-28T14:01:07.893Z,17.00
2019-04-28T14:03:41.571Z,16.90
2019-04-28T14:06:28.216Z,16.80
2019-04-28T14:08:52.429Z,16.80
2019-04-28T14:11:21.802Z,16.70
2019-04-28T14:13:51.164Z,16.50
2019-04-28T14:16:20.490Z,16.50
2019-04-28T14:18:49.902Z,16.50
2019-04-28T14:21:19.205Z,16.40
2019-04-28T14:23:48.635Z,16.60
2019-04-28T14:26:17.991Z,16.70
2019-04-28T14:28:47.361Z,16.80
2019-04-28T14:31:16.692Z,16.80
2019-04-28T14:33:46.110Z,16.80
2019-04-28T14:36:15.442Z,17.00
2019-04-28T14:38:44.809Z,17.00
2019-04-28T14:41:14.127Z,16.80
2019-04-28T14:43:43.475Z,16.80
2019-04-28T14:46:12.829Z,16.90
2019-04-28T14:48:42.243Z,17.10
2019-04-28T14:51:11.653Z,17.10
2019-04-28T14:53:40.925Z,17.10
2019-04-28T14:56:10.278Z,17.00
2019-04-28T14:58:39.621Z,16.70
2019-04-28T15:01:16.485Z,16.70
2019-04-28T15:03:47.480Z,16.60
2019-04-28T15:06:18.469Z,16.40
2019-04-28T15:08:49.449Z,16.00
2019-04-28T15:11:38.666Z,15.50
2019-04-28T15:14:08.043Z,15.40
2019-04-28T15:16:37.397Z,15.30
2019-04-28T15:19:06.811Z,15.10
2019-04-28T15:21:36.152Z,15.00
2019-04-28T15:24:05.705Z,14.90
2019-04-28T15:26:35.045Z,14.80
2019-04-28T15:29:04.524Z,14.80
2019-04-28T15:31:33.944Z,14.80
2019-04-28T15:34:03.293Z,14.80
2019-04-28T15:36:32.634Z,14.80
2019-04-28T15:39:01.974Z,14.50
2019-04-28T15:41:31.396Z,14.40
2019-04-28T15:44:00.748Z,14.20
2019-04-28T15:46:30.097Z,14.10
2019-04-28T15:48:59.433Z,14.10
2019-04-28T15:51:28.780Z,14.10
2019-04-28T15:53:58.116Z,14.20
2019-04-28T15:56:31.795Z,14.20
2019-04-28T15:59:01.245Z,14.00
2019-04-28T16:01:30.553Z,14.00
2019-04-28T16:03:59.893Z,13.90
2019-04-28T16:06:29.242Z,13.90
2019-04-28T16:08:59.067Z,13.70
2019-04-28T16:11:29.106Z,13.80
2019-04-28T16:13:58.528Z,13.80
2019-04-28T16:16:27.870Z,13.70
2019-04-28T16:18:57.220Z,13.80
2019-04-28T16:21:26.660Z,13.90
2019-04-28T16:23:56.017Z,13.90
2019-04-28T16:26:25.354Z,13.80
2019-04-28T16:28:54.694Z,13.90
2019-04-28T16:31:24.055Z,13.90
2019-04-28T16:33:53.402Z,13.80
2019-04-28T16:36:22.933Z,13.80
2019-04-28T16:38:52.276Z,13.80
2019-04-28T16:41:26.027Z,13.70
2019-04-28T16:44:08.963Z,13.70
2019-04-28T16:46:38.316Z,13.80
2019-04-28T16:49:07.660Z,13.80
2019-04-28T16:51:37.000Z,13.90
2019-04-28T16:54:06.342Z,13.90
2019-04-28T16:56:53.712Z,13.90
2019-04-28T16:59:30.397Z,13.80
2019-04-28T17:02:01.378Z,13.80
2019-04-28T17:04:30.724Z,13.70
2019-04-28T17:07:00.090Z,13.70
2019-04-28T17:09:29.428Z,13.70
2019-04-28T17:11:58.772Z,13.70
2019-04-28T17:14:28.123Z,13.70
2019-04-28T17:16:57.460Z,13.70
2019-04-28T17:19:27.039Z,13.70
2019-04-28T17:21:56.379Z,13.80
2019-04-28T17:24:25.713Z,13.70
2019-04-28T17:26:55.061Z,13.70
2019-04-28T17:29:24.466Z,13.70
2019-04-28T17:31:53.817Z,13.70
2019-04-28T17:34:23.166Z,13.60
2019-04-28T17:36:52.513Z,13.60
2019-04-28T17:39:23.513Z,13.60
2019-04-28T17:41:52.874Z,13.50
2019-04-28T17:44:22.220Z,13.40
2019-04-28T17:46:51.928Z,13.40
2019-04-28T17:49:22.921Z,13.40
2019-04-28T17:51:52.261Z,13.30
2019-04-28T17:54:21.609Z,13.20
2019-04-28T17:56:50.957Z,13.30
2019-04-28T17:59:20.301Z,13.30
2019-04-28T18:02:06.265Z,13.30
2019-04-28T18:04:43.152Z,13.30
2019-04-28T18:07:20.339Z,13.20
2019-04-28T18:09:49.855Z,13.20
2019-04-28T18:12:19.294Z,13.20
2019-04-28T18:14:50.280Z,13.10
2019-04-28T18:17:27.083Z,13.10
2019-04-28T18:19:56.590Z,13.00
2019-04-28T18:22:25.937Z,13.00
2019-04-28T18:24:55.776Z,12.80
2019-04-28T18:27:25.121Z,12.80
2019-04-28T18:29:54.466Z,12.70
2019-04-28T18:32:25.448Z,12.60
2019-04-28T18:35:08.201Z,12.50
2019-04-28T18:37:41.889Z,12.40
2019-04-28T18:40:16.233Z,12.30
2019-04-28T18:42:49.623Z,12.30
2019-04-28T18:45:18.967Z,12.20
2019-04-28T18:47:48.316Z,12.10
2019-04-28T18:50:17.831Z,12.10
2019-04-28T18:52:47.168Z,11.90
2019-04-28T18:55:16.506Z,11.90
2019-04-28T18:57:45.845Z,11.80
2019-04-28T19:00:16.170Z,11.80
2019-04-28T19:02:47.035Z,11.70
2019-04-28T19:05:16.552Z,11.60
2019-04-28T19:07:50.222Z,11.50
2019-04-28T19:10:21.214Z,11.50
2019-04-28T19:12:52.188Z,11.40
2019-04-28T19:15:38.205Z,11.30
2019-04-28T19:18:12.167Z,11.30
2019-04-28T19:20:41.513Z,11.20
2019-04-28T19:23:10.855Z,11.20
2019-04-28T19:25:40.189Z,11.10
2019-04-28T19:28:09.552Z,11.00
2019-04-28T19:30:39.929Z,10.90
2019-04-28T19:33:09.274Z,10.90
2019-04-28T19:35:38.622Z,10.80
2019-04-28T19:38:07.960Z,10.80
2019-04-28T19:40:37.308Z,10.70
2019-04-28T19:43:06.651Z,10.70
2019-04-28T19:45:37.644Z,10.60
2019-04-28T19:48:06.969Z,10.50
2019-04-28T19:50:36.309Z,10.40
2019-04-28T19:53:05.736Z,10.30
2019-04-28T19:55:39.587Z,10.30
2019-04-28T19:58:16.839Z,10.20
2019-04-28T20:00:47.981Z,10.20
2019-04-28T20:03:17.329Z,10.20
2019-04-28T20:05:46.661Z,10.10
2019-04-28T20:08:16.016Z,10.10
2019-04-28T20:10:45.358Z,10.00
2019-04-28T20:13:14.701Z,9.90
2019-04-28T20:15:44.036Z,9.90
2019-04-28T20:18:13.423Z,9.90
2019-04-28T20:20:42.716Z,9.90
2019-04-28T20:23:12.052Z,9.80
2019-04-28T20:25:41.458Z,9.80
2019-04-28T20:28:12.306Z,9.70
2019-04-28T20:30:41.642Z,9.70
2019-04-28T20:33:10.980Z,9.60
2019-04-28T20:35:41.957Z,9.60
2019-04-28T20:38:15.829Z,9.60
2019-04-28T20:40:49.744Z,9.60
2019-04-28T20:43:20.726Z,9.60
2019-04-28T20:45:50.056Z,9.60
2019-04-28T20:48:19.396Z,9.60
2019-04-28T20:50:48.733Z,9.70
2019-04-28T20:53:19.440Z,9.70
2019-04-28T20:55:48.782Z,9.70
2019-04-28T20:58:18.134Z,9.70
2019-04-28T21:00:47.464Z,9.70
2019-04-28T21:03:16.800Z,9.70
2019-04-28T21:05:46.136Z,9.60
2019-04-28T21:08:15.479Z,9.70
2019-04-28T21:10:44.808Z,9.60
2019-04-28T21:13:14.147Z,9.60
2019-04-28T21:15:43.485Z,9.60
2019-04-28T21:18:12.824Z,9.50
2019-04-28T21:20:42.165Z,9.50
2019-04-28T21:23:11.500Z,9.40
2019-04-28T21:25:40.834Z,9.30
2019-04-28T21:28:10.173Z,9.30
2019-04-28T21:30:39.504Z,9.30
2019-04-28T21:33:08.846Z,9.20
2019-04-28T21:35:38.180Z,9.20
2019-04-28T21:38:07.524Z,9.10
2019-04-28T21:40:37.424Z,9.10
2019-04-28T21:43:11.272Z,9.00
2019-04-28T21:45:50.286Z,9.00
2019-04-28T21:48:32.992Z,9.00
2019-04-28T21:51:02.366Z,9.00
2019-04-28T21:53:31.706Z,9.00
2019-04-28T21:56:01.090Z,8.90
2019-04-28T21:58:33.260Z,8.90
2019-04-28T22:01:02.165Z,8.80
2019-04-28T22:03:31.668Z,8.80
2019-04-28T22:06:01.005Z,8.80
2019-04-28T22:08:30.339Z,8.70
2019-04-28T22:10:59.672Z,8.70
2019-04-28T22:13:29.014Z,8.70
2019-04-28T22:15:58.346Z,8.60
2019-04-28T22:18:27.684Z,8.60
2019-04-28T22:20:57.018Z,8.60
2019-04-28T22:23:28.002Z,8.50
2019-04-28T22:25:57.340Z,8.40
2019-04-28T22:28:26.672Z,8.40
2019-04-28T22:30:56.012Z,8.40
2019-04-28T22:33:25.353Z,8.30
2019-04-28T22:35:54.687Z,8.20
2019-04-28T22:38:24.036Z,8.20
2019-04-28T22:40:53.372Z,8.20
2019-04-28T22:43:22.710Z,8.20
2019-04-28T22:45:52.045Z,8.10
2019-04-28T22:48:24.471Z,8.10
2019-04-28T22:50:53.942Z,8.00
2019-04-28T22:53:24.916Z,8.00
2019-04-28T22:55:55.895Z,8.00
2019-04-28T22:58:38.950Z,7.90
2019-04-28T23:01:15.819Z,7.80
2019-04-28T23:03:46.796Z,7.80
2019-04-28T23:06:16.206Z,7.80
2019-04-28T23:08:45.547Z,7.70
2019-04-28T23:11:14.977Z,7.70
2019-04-28T23:13:44.539Z,7.60
2019-04-28T23:16:13.871Z,7.60
2019-04-28T23:18:43.281Z,7.60
2019-04-28T23:21:19.906Z,7.60
2019-04-28T23:23:49.321Z,7.60
2019-04-28T23:26:18.659Z,7.50
2019-04-28T23:28:47.996Z,7.50
2019-04-28T23:31:17.340Z,7.40
2019-04-28T23:33:46.670Z,7.40
2019-04-28T23:36:16.010Z,7.40
2019-04-28T23:38:45.343Z,7.40
2019-04-28T23:41:22.261Z,7.40
2019-04-28T23:43:51.623Z,7.30
2019-04-28T23:46:22.602Z,7.30
2019-04-28T23:48:51.940Z,7.30
2019-04-28T23:51:22.922Z,7.30
2019-04-28T23:54:05.549Z,7.30
2019-04-28T23:56:34.893Z,7.30
2019-04-28T23:59:04.304Z,7.30
